Time;durP1;ratioP1;P1;durP2;ratioP2;P2;SDS_P1;SDS_P2;PMS_P1;PMS_P2;Temp;Humidity;BMP_temperature;BMP_pressure;BME280_temperature;BME280_humidity;BME280_pressure;Samples;Min_cycle;Max_cycle;Signal;HPM_P1;HPM_P2
2023/12/05 00:01:40;;;;;;;9.38;6.90;;;3.50;99.90;;;;;;7350670;32;20164;-56
2023/12/05 00:05:42;;;;;;;9.18;6.87;;;3.50;99.90;;;;;;7352504;32;20103;-56
2023/12/05 00:09:44;;;;;;;8.73;6.53;;;3.40;99.90;;;;;;7354230;32;20103;-56
2023/12/05 00:13:46;;;;;;;11.68;7.70;;;3.40;99.90;;;;;;7352339;32;20524;-56
2023/12/05 00:17:47;;;;;;;10.38;7.68;;;3.40;99.90;;;;;;7349754;32;20164;-56
2023/12/05 00:21:49;;;;;;;12.05;6.90;;;3.50;99.90;;;;;;7347594;32;20127;-56
2023/12/05 00:25:51;;;;;;;10.43;6.95;;;3.60;99.90;;;;;;7347570;32;20123;-56
2023/12/05 00:29:53;;;;;;;9.63;7.43;;;3.60;99.90;;;;;;7352714;32;20445;-55
2023/12/05 00:33:55;;;;;;;9.35;6.87;;;3.60;99.90;;;;;;7350338;32;20107;-56
2023/12/05 00:37:57;;;;;;;8.95;6.50;;;3.60;99.90;;;;;;7350772;32;20150;-56
2023/12/05 00:41:59;;;;;;;10.40;7.25;;;3.50;99.90;;;;;;7348148;32;20210;-56
2023/12/05 00:46:00;;;;;;;10.93;6.93;;;3.60;99.90;;;;;;7344083;32;20536;-56
2023/12/05 00:50:03;;;;;;;11.30;7.03;;;3.60;99.90;;;;;;7355602;32;20125;-56
2023/12/05 00:54:05;;;;;;;9.75;7.05;;;3.60;99.90;;;;;;7353947;32;20107;-56
2023/12/05 00:58:07;;;;;;;9.95;6.90;;;3.60;99.90;;;;;;7346277;32;20191;-57
2023/12/05 01:02:09;;;;;;;9.13;6.60;;;3.60;99.90;;;;;;7349129;32;20094;-56
2023/12/05 01:06:11;;;;;;;9.20;6.53;;;3.80;99.90;;;;;;7354138;32;20659;-55
2023/12/05 01:10:13;;;;;;;10.43;6.97;;;3.80;99.90;;;;;;7350624;32;20190;-56
2023/12/05 01:14:15;;;;;;;10.80;7.60;;;3.80;99.90;;;;;;7341920;32;20186;-56
2023/12/05 01:18:17;;;;;;;11.77;7.12;;;3.70;99.90;;;;;;7348491;32;20536;-56
2023/12/05 01:22:19;;;;;;;9.13;6.50;;;3.70;99.90;;;;;;7353230;32;20128;-56
2023/12/05 01:26:21;;;;;;;9.98;7.05;;;3.80;99.90;;;;;;7351892;32;20154;-56
2023/12/05 01:30:22;;;;;;;10.40;6.85;;;3.80;99.90;;;;;;7333790;32;20489;-56
2023/12/05 01:34:24;;;;;;;8.65;7.20;;;3.90;99.90;;;;;;7347819;32;20531;-56
2023/12/05 01:38:26;;;;;;;9.45;6.90;;;3.90;99.90;;;;;;7346603;32;20225;-56
2023/12/05 01:42:28;;;;;;;9.50;7.00;;;3.90;99.90;;;;;;7349199;32;20194;-57
2023/12/05 01:46:30;;;;;;;9.55;7.20;;;3.90;99.90;;;;;;7349152;32;20925;-56
2023/12/05 01:50:33;;;;;;;8.55;6.90;;;3.90;99.90;;;;;;7347604;32;20626;-55
2023/12/05 01:54:37;;;;;;;8.60;6.37;;;3.80;99.90;;;;;;7351143;32;20100;-55
2023/12/05 01:58:39;;;;;;;10.63;6.93;;;3.90;99.90;;;;;;7349018;32;20219;-56
2023/12/05 02:02:41;;;;;;;9.40;6.90;;;3.90;99.90;;;;;;7350103;32;20241;-56
2023/12/05 02:06:43;;;;;;;9.02;6.55;;;3.90;99.90;;;;;;7340757;32;20122;-55
2023/12/05 02:10:45;;;;;;;10.55;6.93;;;3.90;99.90;;;;;;7348251;32;20537;-55
2023/12/05 02:14:47;;;;;;;8.52;6.72;;;3.90;99.90;;;;;;7351059;32;20619;-56
2023/12/05 02:18:58;;;;;;;8.73;6.80;;;3.90;99.90;;;;;;7347654;32;20191;-56
2023/12/05 02:23:15;;;;;;;8.13;6.10;;;4.00;99.90;;;;;;7349740;32;20114;-55
2023/12/05 02:27:39;;;;;;;8.90;6.15;;;4.00;99.90;;;;;;7349731;32;20099;-57
2023/12/05 02:31:41;;;;;;;8.13;6.00;;;4.00;99.90;;;;;;7349777;32;20123;-56
2023/12/05 02:35:43;;;;;;;10.10;6.85;;;4.10;99.90;;;;;;7350043;32;20190;-58
2023/12/05 02:40:01;;;;;;;8.65;6.03;;;4.10;99.90;;;;;;7350752;32;20148;-56
2023/12/05 02:44:26;;;;;;;9.25;6.93;;;4.10;99.90;;;;;;7351761;32;20140;-55
2023/12/05 02:48:28;;;;;;;11.55;6.40;;;4.10;99.90;;;;;;7345164;32;20662;-55
2023/12/05 02:52:30;;;;;;;7.05;5.65;;;4.10;99.90;;;;;;7334358;32;20253;-55
2023/12/05 02:56:35;;;;;;;8.60;6.15;;;4.10;99.90;;;;;;7345819;32;20119;-55
2023/12/05 03:00:37;;;;;;;8.02;6.00;;;4.20;99.90;;;;;;7347423;32;20129;-55
2023/12/05 03:04:39;;;;;;;7.95;5.85;;;4.10;99.90;;;;;;7348994;32;20166;-55
2023/12/05 03:08:41;;;;;;;7.90;5.43;;;4.20;99.90;;;;;;7351313;32;20289;-53
2023/12/05 03:12:42;;;;;;;8.40;6.10;;;4.20;99.90;;;;;;7339732;32;20104;-56
2023/12/05 03:16:44;;;;;;;8.32;5.70;;;4.20;99.90;;;;;;7338742;32;20095;-56
2023/12/05 03:20:46;;;;;;;8.93;5.20;;;4.20;99.90;;;;;;7326641;32;20103;-56
2023/12/05 03:24:50;;;;;;;8.40;5.53;;;4.20;99.90;;;;;;7351644;32;20453;-56
2023/12/05 03:28:52;;;;;;;7.20;5.25;;;4.20;99.90;;;;;;7344795;32;20245;-56
2023/12/05 03:32:53;;;;;;;8.77;6.75;;;4.20;99.90;;;;;;7341345;32;20697;-55
2023/12/05 03:36:55;;;;;;;7.53;5.85;;;4.10;99.90;;;;;;7341096;32;20134;-55
2023/12/05 03:40:57;;;;;;;7.80;6.00;;;4.20;99.90;;;;;;7352546;32;20108;-55
2023/12/05 03:44:59;;;;;;;8.95;6.18;;;4.30;99.90;;;;;;7344772;32;20642;-56
2023/12/05 03:49:01;;;;;;;8.73;6.50;;;4.20;99.90;;;;;;7344201;32;20096;-56
2023/12/05 03:53:03;;;;;;;7.35;5.55;;;4.30;99.90;;;;;;7346242;32;20099;-56
2023/12/05 03:57:05;;;;;;;8.75;6.12;;;4.30;99.90;;;;;;7337657;32;20100;-56
2023/12/05 04:01:07;;;;;;;7.97;5.60;;;4.40;99.90;;;;;;7344655;32;20205;-56
2023/12/05 04:05:09;;;;;;;7.03;5.37;;;4.40;99.90;;;;;;7349970;32;20174;-56
2023/12/05 04:09:11;;;;;;;8.98;5.80;;;4.40;99.90;;;;;;7341788;32;20092;-56
2023/12/05 04:13:13;;;;;;;7.50;5.28;;;4.40;99.90;;;;;;7344738;32;20096;-56
2023/12/05 04:17:15;;;;;;;8.30;6.00;;;4.50;99.90;;;;;;7347480;32;20435;-55
2023/12/05 04:21:20;;;;;;;7.12;5.25;;;4.60;99.90;;;;;;7345599;32;20111;-55
2023/12/05 04:25:22;;;;;;;7.78;5.47;;;4.70;99.90;;;;;;7343193;32;20111;-56
2023/12/05 04:29:24;;;;;;;10.95;5.68;;;4.70;99.90;;;;;;7341408;32;20348;-55
2023/12/05 04:33:26;;;;;;;7.43;5.32;;;4.70;99.90;;;;;;7349991;32;20111;-57
2023/12/05 04:37:28;;;;;;;7.43;4.90;;;4.80;99.90;;;;;;7356319;32;20155;-55
2023/12/05 04:41:33;;;;;;;6.80;4.50;;;4.80;99.90;;;;;;7349682;32;20106;-57
2023/12/05 04:45:35;;;;;;;5.72;4.80;;;4.80;99.90;;;;;;7344980;32;20103;-56
2023/12/05 04:49:37;;;;;;;7.15;4.70;;;4.90;99.90;;;;;;7348431;32;20133;-54
2023/12/05 04:53:40;;;;;;;7.72;4.62;;;4.90;99.90;;;;;;7353460;32;20111;-56
2023/12/05 04:57:42;;;;;;;7.82;5.00;;;5.00;99.90;;;;;;7343638;32;20978;-55
2023/12/05 05:01:44;;;;;;;7.05;4.68;;;4.90;99.90;;;;;;7347609;32;20703;-56
2023/12/05 05:05:46;;;;;;;6.47;4.70;;;4.90;99.90;;;;;;7347918;32;20133;-55
2023/12/05 05:09:49;;;;;;;5.82;4.35;;;4.90;99.90;;;;;;7349687;32;20100;-56
2023/12/05 05:13:51;;;;;;;8.32;5.07;;;5.00;99.90;;;;;;7335753;32;20381;-55
2023/12/05 05:17:59;;;;;;;8.13;5.55;;;5.00;99.90;;;;;;7343859;32;20166;-55
2023/12/05 05:22:02;;;;;;;6.30;4.43;;;5.10;99.90;;;;;;7340478;32;20429;-56
2023/12/05 05:26:04;;;;;;;6.47;4.62;;;5.10;99.90;;;;;;7343791;32;20422;-56
2023/12/05 05:30:07;;;;;;;6.32;4.50;;;5.10;99.90;;;;;;7348300;32;20109;-56
2023/12/05 05:34:08;;;;;;;6.18;4.68;;;5.10;99.90;;;;;;7348378;32;20515;-57
2023/12/05 05:38:10;;;;;;;7.37;5.00;;;5.10;99.90;;;;;;7350577;32;20104;-56
2023/12/05 05:42:12;;;;;;;8.30;4.72;;;5.20;99.90;;;;;;7347139;32;20213;-56
2023/12/05 05:46:14;;;;;;;6.05;4.80;;;5.20;99.90;;;;;;7348163;32;20228;-56
2023/12/05 05:50:15;;;;;;;5.90;4.28;;;5.30;99.90;;;;;;7345766;32;20186;-56
2023/12/05 05:54:21;;;;;;;7.32;4.45;;;5.30;99.90;;;;;;7348227;32;20230;-57
2023/12/05 05:58:23;;;;;;;6.22;4.57;;;5.30;99.90;;;;;;7349936;32;20173;-56
2023/12/05 06:02:25;;;;;;;6.03;4.45;;;5.40;99.90;;;;;;7346171;32;20439;-56
2023/12/05 06:06:27;;;;;;;6.78;5.07;;;5.30;99.90;;;;;;7340039;32;20736;-55
2023/12/05 06:10:29;;;;;;;4.60;3.92;;;5.40;99.90;;;;;;7347050;32;20126;-56
2023/12/05 06:14:31;;;;;;;5.62;3.92;;;5.40;99.90;;;;;;7344887;32;20107;-56
2023/12/05 06:18:33;;;;;;;6.18;3.65;;;5.40;99.90;;;;;;7347310;32;20224;-56
2023/12/05 06:22:35;;;;;;;5.95;3.92;;;5.50;99.90;;;;;;7334794;32;20212;-56
2023/12/05 06:26:36;;;;;;;5.30;3.45;;;5.50;99.90;;;;;;7349378;32;20244;-56
2023/12/05 06:30:38;;;;;;;6.40;4.50;;;5.50;99.90;;;;;;7346714;32;20191;-56
2023/12/05 06:34:40;;;;;;;7.12;4.12;;;5.50;99.90;;;;;;7347903;32;22409;-55
2023/12/05 06:38:42;;;;;;;7.97;4.00;;;5.50;99.90;;;;;;7343757;32;20211;-56
2023/12/05 06:42:43;;;;;;;5.82;4.25;;;5.50;99.90;;;;;;7341349;32;20269;-56
2023/12/05 06:46:45;;;;;;;5.50;3.92;;;5.50;99.90;;;;;;7339474;32;20153;-55
2023/12/05 06:50:48;;;;;;;8.07;4.00;;;5.60;99.90;;;;;;7343012;32;20189;-56
2023/12/05 06:54:51;;;;;;;5.32;3.75;;;5.60;99.90;;;;;;7343037;32;20225;-55
2023/12/05 06:58:53;;;;;;;6.43;4.03;;;5.60;99.90;;;;;;7345332;32;20253;-55
2023/12/05 07:02:55;;;;;;;6.32;3.80;;;5.70;99.90;;;;;;7341421;32;20250;-55
2023/12/05 07:06:56;;;;;;;5.90;3.50;;;5.70;99.90;;;;;;7345854;32;20107;-55
2023/12/05 07:11:01;;;;;;;6.00;3.35;;;5.70;99.90;;;;;;7345966;32;20446;-56
2023/12/05 07:15:03;;;;;;;5.82;3.95;;;5.70;99.90;;;;;;7348293;32;20194;-55
2023/12/05 07:19:05;;;;;;;5.75;3.78;;;5.70;99.90;;;;;;7325853;32;20657;-54
2023/12/05 07:23:07;;;;;;;6.00;3.80;;;5.70;99.90;;;;;;7338498;32;21647;-56
2023/12/05 07:27:08;;;;;;;8.68;3.75;;;5.70;99.90;;;;;;7342261;32;20100;-56
2023/12/05 07:31:10;;;;;;;6.37;4.10;;;5.70;99.90;;;;;;7343940;32;20121;-57
2023/12/05 07:35:12;;;;;;;5.75;4.20;;;5.80;99.90;;;;;;7328552;32;20498;-57
2023/12/05 07:39:14;;;;;;;5.47;3.67;;;5.80;99.90;;;;;;7343951;32;20117;-56
2023/12/05 07:43:16;;;;;;;5.25;3.87;;;5.70;99.90;;;;;;7342668;32;20118;-57
2023/12/05 07:47:18;;;;;;;6.22;4.15;;;5.80;99.90;;;;;;7338073;32;20693;-57
2023/12/05 07:51:19;;;;;;;9.65;4.30;;;5.90;99.90;;;;;;7342095;32;20600;-56
2023/12/05 07:55:22;;;;;;;7.57;3.75;;;5.90;99.90;;;;;;7348708;32;20124;-57
2023/12/05 07:59:24;;;;;;;6.25;3.42;;;5.90;99.90;;;;;;7339646;32;20823;-56
2023/12/05 08:03:26;;;;;;;6.07;4.03;;;6.00;99.90;;;;;;7341602;32;20127;-57
2023/12/05 08:07:28;;;;;;;4.28;3.58;;;6.00;99.90;;;;;;7345230;32;20103;-57
2023/12/05 08:11:30;;;;;;;5.12;3.62;;;6.00;99.90;;;;;;7348444;32;20103;-57
2023/12/05 08:15:32;;;;;;;5.97;3.92;;;6.00;99.90;;;;;;7333370;32;20513;-57
2023/12/05 08:19:34;;;;;;;4.97;3.83;;;6.10;99.90;;;;;;7341627;32;20730;-57
2023/12/05 08:23:35;;;;;;;5.45;4.10;;;6.10;99.90;;;;;;7343128;32;20465;-57
2023/12/05 08:27:37;;;;;;;5.50;3.58;;;6.10;99.90;;;;;;7349927;32;20606;-57
2023/12/05 08:31:39;;;;;;;5.70;3.12;;;6.20;99.90;;;;;;7345650;32;20463;-57
2023/12/05 08:35:41;;;;;;;5.32;3.47;;;6.20;99.90;;;;;;7347229;32;20648;-56
2023/12/05 08:39:43;;;;;;;6.15;3.90;;;6.30;99.90;;;;;;7350005;32;20095;-56
2023/12/05 08:43:46;;;;;;;5.10;3.60;;;6.30;99.90;;;;;;7349079;32;20201;-57
2023/12/05 08:47:53;;;;;;;6.80;3.62;;;6.30;99.90;;;;;;7348756;32;20122;-55
2023/12/05 08:51:55;;;;;;;6.07;3.70;;;6.40;99.90;;;;;;7353059;32;20208;-56
2023/12/05 08:55:56;;;;;;;5.40;3.30;;;6.40;99.90;;;;;;7349098;32;20104;-56
2023/12/05 08:59:58;;;;;;;7.35;3.40;;;6.50;99.90;;;;;;7349247;32;20577;-56
2023/12/05 09:04:00;;;;;;;5.78;3.42;;;6.50;99.90;;;;;;7345102;32;20122;-56
2023/12/05 09:08:02;;;;;;;6.20;3.62;;;6.60;99.90;;;;;;7345364;32;20201;-56
2023/12/05 09:12:04;;;;;;;5.00;3.55;;;6.50;99.90;;;;;;7351642;32;20810;-57
2023/12/05 09:16:06;;;;;;;6.22;3.67;;;6.60;99.90;;;;;;7338851;32;20186;-55
2023/12/05 09:20:09;;;;;;;6.20;3.92;;;6.60;99.90;;;;;;7346184;32;20135;-57
2023/12/05 09:24:11;;;;;;;6.37;3.83;;;6.60;99.90;;;;;;7350823;32;20103;-57
2023/12/05 09:28:13;;;;;;;6.97;3.90;;;6.70;99.90;;;;;;7345466;32;20117;-56
2023/12/05 09:32:16;;;;;;;4.78;3.72;;;6.70;99.90;;;;;;7346906;32;20596;-55
2023/12/05 09:36:18;;;;;;;6.53;3.37;;;6.70;99.90;;;;;;7344412;32;20245;-58
2023/12/05 09:40:20;;;;;;;6.65;3.55;;;6.70;99.90;;;;;;7350128;32;20809;-57
2023/12/05 09:44:21;;;;;;;6.20;3.50;;;6.70;99.90;;;;;;7342993;32;20325;-56
2023/12/05 09:48:26;;;;;;;4.32;3.00;;;6.70;99.90;;;;;;7347613;32;20902;-62
2023/12/05 09:52:29;;;;;;;4.43;3.03;;;6.90;99.90;;;;;;7337660;32;20500;-56
2023/12/05 09:56:31;;;;;;;4.53;3.00;;;6.90;99.90;;;;;;7347836;32;20100;-56
2023/12/05 10:00:33;;;;;;;4.15;3.05;;;6.90;99.90;;;;;;7349049;32;20087;-56
2023/12/05 10:04:42;;;;;;;4.00;2.87;;;7.00;99.90;;;;;;7340556;32;20272;-57
2023/12/05 10:08:45;;;;;;;4.68;2.92;;;7.10;99.90;;;;;;7349236;32;20707;-55
2023/12/05 10:12:48;;;;;;;6.10;2.80;;;7.00;99.90;;;;;;7345693;32;20280;-56
2023/12/05 10:16:51;;;;;;;4.72;2.97;;;7.00;99.90;;;;;;7339432;32;20183;-56
2023/12/05 10:20:53;;;;;;;3.92;2.65;;;7.10;99.90;;;;;;7334296;32;20103;-55
2023/12/05 10:24:55;;;;;;;5.47;2.60;;;7.20;99.90;;;;;;7349280;32;20199;-56
2023/12/05 10:28:57;;;;;;;5.68;2.87;;;7.20;99.90;;;;;;7343987;32;20126;-57
2023/12/05 10:33:13;;;;;;;5.85;2.60;;;7.20;99.90;;;;;;7340176;32;20123;-55
2023/12/05 10:37:29;;;;;;;4.15;2.40;;;7.20;99.90;;;;;;7343574;32;20122;-58
2023/12/05 10:41:32;;;;;;;6.37;2.70;;;7.20;99.90;;;;;;7347495;32;20509;-58
2023/12/05 10:45:33;;;;;;;5.20;2.60;;;7.20;99.90;;;;;;7337715;32;20122;-60
2023/12/05 10:49:35;;;;;;;4.10;2.80;;;7.20;99.90;;;;;;7337619;32;20238;-56
2023/12/05 10:53:39;;;;;;;4.85;3.00;;;7.30;99.90;;;;;;7343345;32;20103;-57
2023/12/05 10:57:41;;;;;;;4.60;2.28;;;7.30;99.90;;;;;;7339797;32;20114;-58
2023/12/05 11:01:44;;;;;;;4.35;2.40;;;7.30;99.90;;;;;;7339856;32;20122;-57
2023/12/05 11:05:46;;;;;;;3.90;2.30;;;7.30;99.90;;;;;;7348627;32;20522;-55
2023/12/05 11:09:48;;;;;;;3.90;2.55;;;7.30;99.90;;;;;;7342732;32;20216;-57
2023/12/05 11:13:51;;;;;;;5.50;2.47;;;7.20;99.90;;;;;;7347948;32;20102;-57
2023/12/05 11:18:05;;;;;;;5.32;2.37;;;7.20;99.90;;;;;;7341975;32;20122;-57
2023/12/05 11:22:28;;;;;;;3.22;2.15;;;7.20;99.90;;;;;;7342398;32;20613;-56
2023/12/05 11:26:51;;;;;;;4.10;2.35;;;7.20;99.90;;;;;;7343554;32;20198;-58
2023/12/05 11:31:19;;;;;;;4.93;2.20;;;7.20;99.90;;;;;;7340715;32;20398;-55
2023/12/05 11:35:27;;;;;;;;;;;7.10;99.90;;;;;;7337586;32;20568;-56
2023/12/05 11:39:29;;;;;;;4.68;2.50;;;7.10;99.90;;;;;;7343962;32;20037;-58
2023/12/05 11:43:31;;;;;;;3.58;2.28;;;7.10;99.90;;;;;;7345646;32;20711;-58
2023/12/05 11:47:33;;;;;;;4.45;2.53;;;7.10;99.90;;;;;;7348754;32;20273;-58
2023/12/05 11:51:36;;;;;;;4.28;2.40;;;7.20;99.90;;;;;;7352116;32;20563;-57
2023/12/05 11:55:45;;;;;;;6.00;2.53;;;7.20;99.90;;;;;;7345831;32;20558;-58
2023/12/05 11:59:50;;;;;;;5.12;2.53;;;7.20;99.90;;;;;;7337375;32;20104;-57
2023/12/05 12:03:54;;;;;;;4.22;2.75;;;7.10;99.90;;;;;;7348602;32;20107;-56
2023/12/05 12:07:56;;;;;;;5.87;2.50;;;7.20;99.90;;;;;;7351348;32;20198;-57
2023/12/05 12:11:59;;;;;;;3.40;2.47;;;7.10;99.90;;;;;;7348121;32;20103;-56
2023/12/05 12:16:01;;;;;;;5.03;2.30;;;7.10;99.90;;;;;;7344882;32;20096;-56
2023/12/05 12:20:03;;;;;;;6.32;2.40;;;7.10;99.90;;;;;;7342143;32;20096;-56
2023/12/05 12:24:06;;;;;;;4.07;2.25;;;7.10;99.90;;;;;;7343297;32;20212;-56
2023/12/05 12:28:29;;;;;;;4.00;2.05;;;7.10;99.90;;;;;;7346349;32;21167;-56
2023/12/05 12:32:31;;;;;;;4.32;2.58;;;7.10;99.90;;;;;;7340741;32;20122;-54
2023/12/05 12:36:34;;;;;;;3.40;2.45;;;7.10;99.90;;;;;;7346602;32;20115;-56
2023/12/05 12:40:36;;;;;;;4.07;2.50;;;7.10;99.90;;;;;;7351724;32;20261;-55
2023/12/05 12:44:39;;;;;;;3.60;2.47;;;7.10;99.90;;;;;;7352868;32;20716;-55
2023/12/05 12:48:42;;;;;;;4.25;2.50;;;7.00;99.90;;;;;;7348964;32;20178;-55
2023/12/05 12:52:44;;;;;;;3.55;2.33;;;7.00;99.90;;;;;;7347139;32;20290;-56
2023/12/05 12:56:50;;;;;;;3.50;2.90;;;7.00;99.90;;;;;;7343334;32;20232;-56
2023/12/05 13:00:52;;;;;;;3.65;2.53;;;6.90;99.90;;;;;;7343225;32;20243;-55
2023/12/05 13:04:57;;;;;;;3.75;2.40;;;6.90;99.90;;;;;;7346708;32;20095;-56
2023/12/05 13:08:59;;;;;;;3.83;2.33;;;6.90;99.90;;;;;;7344830;32;20265;-56
2023/12/05 13:13:05;;;;;;;2.87;1.73;;;6.90;99.90;;;;;;7345059;32;20601;-55
2023/12/05 13:17:10;;;;;;;2.47;1.70;;;6.90;99.90;;;;;;7348077;32;20106;-58
2023/12/05 13:21:13;;;;;;;1.98;1.40;;;6.90;99.90;;;;;;7348681;32;20263;-55
2023/12/05 13:25:14;;;;;;;1.85;1.25;;;6.90;99.90;;;;;;7345833;32;20196;-56
2023/12/05 13:29:16;;;;;;;2.28;1.00;;;6.90;99.90;;;;;;7344907;32;20197;-56
2023/12/05 13:33:18;;;;;;;1.58;1.00;;;6.80;99.90;;;;;;7345457;32;21134;-56
2023/12/05 13:37:22;;;;;;;1.40;1.08;;;6.80;99.90;;;;;;7342724;32;20904;-56
2023/12/05 13:41:24;;;;;;;1.20;1.08;;;6.80;99.90;;;;;;7343905;32;20222;-56
2023/12/05 13:45:27;;;;;;;1.75;0.90;;;6.80;99.90;;;;;;7351377;32;20200;-57
2023/12/05 13:49:28;;;;;;;1.35;1.20;;;6.80;99.90;;;;;;7347025;32;20250;-56
2023/12/05 13:53:30;;;;;;;2.30;1.40;;;6.80;99.90;;;;;;7346115;32;20259;-56
2023/12/05 13:57:32;;;;;;;1.10;1.00;;;6.70;99.90;;;;;;7344982;32;20108;-56
2023/12/05 14:01:34;;;;;;;4.68;2.12;;;6.70;99.90;;;;;;7350059;32;20112;-56
2023/12/05 14:05:36;;;;;;;5.87;2.90;;;6.70;99.90;;;;;;7342212;32;20229;-57
2023/12/05 14:09:38;;;;;;;5.15;3.97;;;6.50;99.90;;;;;;7346838;32;20161;-56
2023/12/05 14:13:39;;;;;;;12.77;8.35;;;6.30;99.90;;;;;;7348720;32;20148;-57
2023/12/05 14:17:41;;;;;;;13.75;9.38;;;6.00;99.90;;;;;;7338082;32;20132;-57
2023/12/05 14:21:43;;;;;;;14.35;9.32;;;5.90;99.90;;;;;;7339604;32;20221;-58
2023/12/05 14:25:45;;;;;;;13.43;10.32;;;5.60;99.90;;;;;;7349946;32;20092;-61
2023/12/05 14:29:46;;;;;;;13.40;10.07;;;5.60;99.90;;;;;;7345822;32;20194;-58
2023/12/05 14:33:48;;;;;;;15.10;11.12;;;5.40;99.90;;;;;;7342006;32;20996;-57
2023/12/05 14:37:50;;;;;;;18.30;12.07;;;5.40;99.90;;;;;;7345997;32;20178;-57
2023/12/05 14:41:53;;;;;;;19.33;12.93;;;5.40;99.90;;;;;;7345784;32;20213;-57
2023/12/05 14:45:56;;;;;;;16.77;11.15;;;5.40;99.90;;;;;;7348078;32;20107;-58
2023/12/05 14:49:58;;;;;;;17.92;11.85;;;5.30;99.90;;;;;;7349454;32;20095;-58
2023/12/05 14:53:59;;;;;;;17.92;11.85;;;5.20;99.90;;;;;;7337072;32;20206;-58
2023/12/05 14:58:01;;;;;;;16.35;10.95;;;5.10;99.90;;;;;;7346176;32;20184;-57
2023/12/05 15:02:04;;;;;;;12.40;8.90;;;5.00;99.90;;;;;;7343058;32;20724;-57
2023/12/05 15:06:06;;;;;;;14.43;9.35;;;4.90;99.90;;;;;;7348789;32;20141;-57
2023/12/05 15:10:07;;;;;;;18.35;10.82;;;4.80;99.90;;;;;;7343580;32;20184;-57
2023/12/05 15:14:10;;;;;;;20.35;12.07;;;4.80;99.90;;;;;;7344450;32;20190;-57
2023/12/05 15:18:12;;;;;;;24.08;14.90;;;4.80;99.90;;;;;;7344650;32;20129;-56
2023/12/05 15:22:14;;;;;;;26.42;15.55;;;4.70;99.90;;;;;;7351558;32;20115;-57
2023/12/05 15:26:18;;;;;;;28.70;15.93;;;4.70;99.90;;;;;;7346980;32;20275;-57
2023/12/05 15:30:20;;;;;;;28.55;16.77;;;4.60;99.90;;;;;;7342723;32;20121;-58
2023/12/05 15:34:22;;;;;;;24.87;14.48;;;4.40;99.90;;;;;;7345069;32;20111;-57
2023/12/05 15:38:24;;;;;;;25.05;14.73;;;4.30;99.90;;;;;;7339325;32;20560;-56
2023/12/05 15:42:28;;;;;;;27.60;15.07;;;4.20;99.90;;;;;;7336065;32;20149;-56
2023/12/05 15:46:30;;;;;;;23.40;14.07;;;4.10;99.90;;;;;;7342119;32;20135;-56
2023/12/05 15:50:32;;;;;;;22.52;12.00;;;4.00;99.90;;;;;;7339499;32;20561;-56
2023/12/05 15:54:36;;;;;;;23.48;12.80;;;3.90;99.90;;;;;;7342238;32;20246;-58
2023/12/05 15:58:38;;;;;;;24.27;14.40;;;3.90;99.90;;;;;;7340547;32;20206;-56
2023/12/05 16:02:41;;;;;;;23.52;13.70;;;3.90;99.90;;;;;;7341752;32;20107;-56
2023/12/05 16:06:44;;;;;;;25.90;14.63;;;3.90;99.90;;;;;;7338923;32;20615;-55
2023/12/05 16:10:46;;;;;;;23.65;14.35;;;3.90;99.90;;;;;;7343436;32;21019;-56
2023/12/05 16:14:48;;;;;;;24.85;13.30;;;3.80;99.90;;;;;;7342943;32;20145;-58
2023/12/05 16:18:49;;;;;;;19.98;11.20;;;3.70;99.90;;;;;;7347550;32;20119;-56
2023/12/05 16:22:51;;;;;;;19.75;12.10;;;3.70;99.90;;;;;;7344408;32;20150;-56
2023/12/05 16:26:53;;;;;;;20.65;11.55;;;3.60;99.90;;;;;;7344528;32;20129;-57
2023/12/05 16:30:55;;;;;;;19.40;11.55;;;3.60;99.90;;;;;;7345702;32;20114;-57
2023/12/05 16:34:57;;;;;;;14.75;9.48;;;3.60;99.90;;;;;;7345529;32;20247;-56
2023/12/05 16:38:58;;;;;;;16.92;10.30;;;3.50;99.90;;;;;;7343026;32;20305;-56
2023/12/05 16:43:00;;;;;;;17.65;9.20;;;3.40;99.90;;;;;;7350982;32;20480;-56
2023/12/05 16:47:02;;;;;;;18.08;9.63;;;3.40;99.90;;;;;;7345208;32;20246;-56
2023/12/05 16:51:04;;;;;;;14.95;9.10;;;3.50;99.90;;;;;;7344967;32;20119;-56
2023/12/05 16:55:06;;;;;;;15.27;9.20;;;3.50;99.90;;;;;;7351519;32;20168;-56
2023/12/05 16:59:08;;;;;;;15.60;9.60;;;3.40;99.90;;;;;;7351109;32;20099;-55
2023/12/05 17:03:20;;;;;;;19.48;9.95;;;3.40;99.90;;;;;;7355760;32;20087;-57
2023/12/05 17:07:21;;;;;;;14.50;7.80;;;3.30;99.90;;;;;;7344352;32;20151;-56
2023/12/05 17:11:24;;;;;;;12.85;8.55;;;3.30;99.90;;;;;;7349500;32;20143;-56
2023/12/05 17:15:27;;;;;;;14.75;8.85;;;3.30;99.90;;;;;;7349625;32;20293;-58
2023/12/05 17:19:29;;;;;;;16.75;10.15;;;3.20;99.90;;;;;;7345155;32;20118;-56
2023/12/05 17:23:31;;;;;;;15.88;9.70;;;3.20;99.90;;;;;;7343967;32;20119;-56
2023/12/05 17:27:33;;;;;;;17.67;10.80;;;3.30;99.90;;;;;;7340859;32;20195;-58
2023/12/05 17:31:35;;;;;;;19.27;10.90;;;3.30;99.90;;;;;;7348049;32;20750;-58
2023/12/05 17:35:37;;;;;;;21.35;12.45;;;3.20;99.90;;;;;;7329624;32;20174;-56
2023/12/05 17:39:39;;;;;;;24.98;13.70;;;3.30;99.90;;;;;;7345002;32;20157;-57
2023/12/05 17:43:41;;;;;;;28.38;15.00;;;3.30;99.90;;;;;;7349806;32;20266;-57
2023/12/05 17:47:42;;;;;;;31.83;16.35;;;3.30;99.90;;;;;;7342392;32;20103;-56
2023/12/05 17:51:44;;;;;;;29.98;17.15;;;3.30;99.90;;;;;;7350999;32;20135;-56
2023/12/05 17:55:46;;;;;;;33.13;18.25;;;3.20;99.90;;;;;;7343941;32;20170;-55
2023/12/05 17:59:48;;;;;;;34.20;17.90;;;3.20;99.90;;;;;;7341709;32;20524;-55
2023/12/05 18:03:51;;;;;;;34.58;18.58;;;3.20;99.90;;;;;;7339269;32;20173;-55
2023/12/05 18:07:53;;;;;;;38.22;19.83;;;3.20;99.90;;;;;;7349352;32;20107;-56
2023/12/05 18:12:00;;;;;;;41.58;20.83;;;3.20;99.90;;;;;;7346811;32;20179;-56
2023/12/05 18:16:02;;;;;;;42.40;19.58;;;3.20;99.90;;;;;;7342990;32;20103;-54
2023/12/05 18:20:05;;;;;;;36.97;19.30;;;3.20;99.90;;;;;;7346790;32;20486;-56
2023/12/05 18:24:06;;;;;;;38.67;20.00;;;3.30;99.90;;;;;;7347513;32;20190;-59
2023/12/05 18:28:08;;;;;;;36.88;18.90;;;3.10;99.90;;;;;;7344291;32;20112;-55
2023/12/05 18:32:10;;;;;;;33.80;19.23;;;3.10;99.90;;;;;;7342550;32;20164;-56
2023/12/05 18:36:13;;;;;;;34.13;17.77;;;3.20;99.90;;;;;;7339280;32;20127;-55
2023/12/05 18:40:16;;;;;;;35.67;16.95;;;3.20;99.90;;;;;;7345409;32;20239;-55
2023/12/05 18:44:17;;;;;;;37.95;17.90;;;3.20;99.90;;;;;;7346460;32;20210;-56
2023/12/05 18:48:19;;;;;;;37.60;20.20;;;3.20;99.90;;;;;;7337534;32;20464;-56
2023/12/05 18:52:21;;;;;;;34.65;18.87;;;3.20;99.90;;;;;;7341668;32;20127;-55
2023/12/05 18:56:23;;;;;;;32.30;18.15;;;3.20;99.90;;;;;;7348664;32;20229;-55
2023/12/05 19:00:25;;;;;;;34.92;18.92;;;3.20;99.90;;;;;;7343621;32;20175;-56
2023/12/05 19:04:27;;;;;;;37.40;18.58;;;3.10;99.90;;;;;;7348599;32;20222;-55
2023/12/05 19:08:29;;;;;;;42.65;19.37;;;3.00;99.90;;;;;;7347138;32;20281;-55
2023/12/05 19:12:31;;;;;;;39.13;18.37;;;3.10;99.90;;;;;;7348793;32;20111;-55
2023/12/05 19:16:33;;;;;;;37.30;18.62;;;3.10;99.90;;;;;;7342206;32;20179;-54
2023/12/05 19:20:37;;;;;;;34.53;18.08;;;3.10;99.90;;;;;;7341215;32;20313;-54
2023/12/05 19:24:39;;;;;;;41.65;19.02;;;3.00;99.90;;;;;;7344042;32;20567;-55
2023/12/05 19:28:41;;;;;;;35.67;18.80;;;3.10;99.90;;;;;;7343226;32;20201;-57
2023/12/05 19:32:57;;;;;;;45.75;20.42;;;3.10;99.90;;;;;;7342116;32;20209;-56
2023/12/05 19:36:59;;;;;;;50.92;21.20;;;3.20;99.90;;;;;;7344839;32;20142;-55
2023/12/05 19:41:01;;;;;;;47.88;21.65;;;3.10;99.90;;;;;;7343648;32;20099;-55
2023/12/05 19:45:03;;;;;;;46.63;22.65;;;3.10;99.90;;;;;;7343809;32;20182;-54
2023/12/05 19:49:04;;;;;;;49.75;23.12;;;3.10;99.90;;;;;;7346215;32;20250;-57
2023/12/05 19:53:06;;;;;;;50.53;23.40;;;3.10;99.90;;;;;;7342781;32;20099;-57
2023/12/05 19:57:08;;;;;;;48.40;23.17;;;3.10;99.90;;;;;;7345081;32;20208;-56
2023/12/05 20:01:10;;;;;;;47.40;23.10;;;3.10;99.90;;;;;;7345313;32;20825;-56
2023/12/05 20:05:12;;;;;;;48.55;22.27;;;3.10;99.90;;;;;;7345518;32;20207;-58
2023/12/05 20:09:14;;;;;;;56.65;24.48;;;3.00;99.90;;;;;;7343394;32;20119;-55
2023/12/05 20:13:15;;;;;;;47.95;22.98;;;3.10;99.90;;;;;;7342940;32;20685;-56
2023/12/05 20:17:17;;;;;;;52.62;23.73;;;3.10;99.90;;;;;;7346919;32;20632;-56
2023/12/05 20:21:19;;;;;;;52.17;24.02;;;3.00;99.90;;;;;;7351193;32;20153;-57
2023/12/05 20:25:21;;;;;;;53.05;21.20;;;3.10;99.90;;;;;;7350908;32;20154;-56
2023/12/05 20:29:23;;;;;;;47.05;20.58;;;2.90;99.90;;;;;;7350438;32;20181;-56
2023/12/05 20:33:25;;;;;;;42.72;20.17;;;2.90;99.90;;;;;;7347217;32;20304;-56
2023/12/05 20:37:27;;;;;;;44.53;20.12;;;2.80;99.90;;;;;;7347293;32;20092;-56
2023/12/05 20:41:28;;;;;;;40.63;19.48;;;2.90;99.90;;;;;;7345103;32;20482;-56
2023/12/05 20:45:31;;;;;;;40.65;18.87;;;2.90;99.90;;;;;;7346846;32;20141;-55
2023/12/05 20:49:32;;;;;;;38.70;19.92;;;2.90;99.90;;;;;;7346762;32;20294;-56
2023/12/05 20:53:35;;;;;;;38.97;18.75;;;2.90;99.90;;;;;;7350998;32;20103;-59
2023/12/05 20:57:36;;;;;;;41.22;18.25;;;2.80;99.90;;;;;;7349970;32;20202;-58
2023/12/05 21:01:38;;;;;;;38.95;19.50;;;2.80;99.90;;;;;;7348092;32;20324;-58
2023/12/05 21:05:40;;;;;;;41.75;20.00;;;2.80;99.90;;;;;;7348074;32;20118;-58
2023/12/05 21:09:42;;;;;;;41.20;19.17;;;2.80;99.90;;;;;;7352250;32;20748;-58